createdAt,value
2022-09-03T00:01:55.697Z,3.20
2022-09-03T00:04:37.935Z,3.00
2022-09-03T00:07:14.469Z,3.70
2022-09-03T00:09:48.448Z,3.20
2022-09-03T00:12:24.943Z,3.30
2022-09-03T00:15:11.793Z,4.10
2022-09-03T00:17:41.267Z,3.03
2022-09-03T00:20:24.946Z,3.07
2022-09-03T00:22:55.520Z,3.83
2022-09-03T00:25:34.980Z,3.20
2022-09-03T00:28:06.100Z,3.43
2022-09-03T00:30:35.332Z,3.67
2022-09-03T00:33:13.312Z,2.90
2022-09-03T00:36:05.117Z,3.23
2022-09-03T00:38:33.699Z,3.23
2022-09-03T00:41:17.551Z,3.73
2022-09-03T00:44:29.845Z,3.27
2022-09-03T00:47:18.846Z,3.50
2022-09-03T00:49:55.128Z,3.33
2022-09-03T00:52:48.612Z,3.73
2022-09-03T00:55:35.432Z,3.80
2022-09-03T00:58:10.023Z,3.80
2022-09-03T01:00:39.835Z,3.70
2022-09-03T01:03:11.840Z,3.90
2022-09-03T01:05:47.894Z,3.80
2022-09-03T01:09:00.210Z,3.60
2022-09-03T01:11:47.349Z,3.97
2022-09-03T01:14:23.452Z,3.90
2022-09-03T01:17:03.350Z,3.70
2022-09-03T01:19:51.268Z,3.67
2022-09-03T01:22:45.262Z,3.80
2022-09-03T01:25:20.503Z,3.37
2022-09-03T01:28:25.701Z,3.60
2022-09-03T01:31:27.015Z,3.20
2022-09-03T01:34:19.949Z,2.93
2022-09-03T01:37:16.325Z,3.60
2022-09-03T01:40:05.256Z,3.97
2022-09-03T01:42:52.305Z,3.77
2022-09-03T01:45:22.712Z,2.90
2022-09-03T01:48:17.485Z,3.17
2022-09-03T01:51:09.205Z,3.40
2022-09-03T01:53:55.281Z,3.20
2022-09-03T01:56:50.506Z,3.97
2022-09-03T01:59:34.808Z,3.30
2022-09-03T02:02:11.942Z,3.13
2022-09-03T02:04:39.530Z,3.13
2022-09-03T02:07:07.440Z,3.40
2022-09-03T02:09:34.497Z,3.50
2022-09-03T02:12:20.925Z,3.40
2022-09-03T02:14:48.463Z,3.43
2022-09-03T02:17:15.920Z,3.53
2022-09-03T02:19:43.170Z,3.33
2022-09-03T02:22:10.327Z,3.30
2022-09-03T02:24:37.636Z,3.00
2022-09-03T02:27:04.992Z,3.20
2022-09-03T02:29:33.109Z,3.23
2022-09-03T02:32:00.514Z,3.07
2022-09-03T02:34:27.745Z,3.10
2022-09-03T02:36:54.843Z,3.17
2022-09-03T02:39:22.291Z,2.90
2022-09-03T02:41:57.492Z,2.90
2022-09-03T02:44:31.654Z,2.60
2022-09-03T02:47:04.723Z,2.77
2022-09-03T02:49:33.102Z,3.07
2022-09-03T02:52:05.893Z,3.43
2022-09-03T02:54:36.457Z,2.77
2022-09-03T02:57:03.697Z,2.73
2022-09-03T02:59:31.763Z,2.63
2022-09-03T03:02:01.131Z,3.17
2022-09-03T03:04:29.831Z,3.10
2022-09-03T03:06:56.954Z,2.70
2022-09-03T03:09:24.399Z,3.10
2022-09-03T03:11:52.285Z,2.73
2022-09-03T03:14:19.719Z,2.90
2022-09-03T03:16:47.206Z,2.93
2022-09-03T03:19:14.450Z,2.93
2022-09-03T03:21:41.671Z,2.73
2022-09-03T03:24:09.725Z,2.93
2022-09-03T03:26:36.820Z,3.23
2022-09-03T03:29:07.180Z,2.83
2022-09-03T03:31:35.044Z,3.10
2022-09-03T03:34:03.745Z,3.03
2022-09-03T03:36:33.368Z,2.30
2022-09-03T03:39:01.882Z,2.90
2022-09-03T03:41:36.700Z,2.93
2022-09-03T03:44:08.386Z,3.30
2022-09-03T03:46:38.136Z,3.00
2022-09-03T03:49:06.788Z,2.50
2022-09-03T03:51:35.440Z,2.83
2022-09-03T03:54:05.263Z,2.97
2022-09-03T03:56:34.253Z,2.73
2022-09-03T03:59:02.068Z,3.00
2022-09-03T04:01:29.970Z,2.67
2022-09-03T04:04:00.311Z,2.50
2022-09-03T04:06:27.738Z,3.00
2022-09-03T04:08:55.303Z,2.93
2022-09-03T04:11:24.554Z,2.60
2022-09-03T04:13:52.318Z,2.90
2022-09-03T04:16:25.435Z,3.13
2022-09-03T04:18:54.908Z,2.80
2022-09-03T04:21:28.618Z,2.93
2022-09-03T04:23:58.465Z,3.00
2022-09-03T04:26:33.590Z,2.50
2022-09-03T04:29:04.996Z,2.60
2022-09-03T04:31:32.988Z,3.67
2022-09-03T04:34:00.592Z,2.63
2022-09-03T04:36:30.033Z,2.70
2022-09-03T04:39:00.161Z,2.70
2022-09-03T04:41:29.524Z,2.57
2022-09-03T04:43:58.836Z,3.03
2022-09-03T04:46:28.883Z,3.00
2022-09-03T04:48:56.315Z,2.90
2022-09-03T04:51:27.521Z,2.83
2022-09-03T04:53:57.422Z,2.90
2022-09-03T04:56:26.984Z,2.57
2022-09-03T04:58:59.515Z,3.37
2022-09-03T05:01:30.833Z,2.67
2022-09-03T05:03:59.189Z,3.00
2022-09-03T05:06:27.741Z,3.20
2022-09-03T05:08:55.942Z,2.70
2022-09-03T05:11:24.929Z,2.90
2022-09-03T05:13:54.286Z,2.70
2022-09-03T05:16:23.890Z,2.77
2022-09-03T05:18:56.612Z,2.90
2022-09-03T05:21:24.673Z,2.80
2022-09-03T05:23:53.046Z,2.87
2022-09-03T05:26:25.630Z,3.23
2022-09-03T05:28:58.493Z,2.90
2022-09-03T05:31:28.857Z,2.80
2022-09-03T05:33:59.052Z,2.43
2022-09-03T05:36:30.473Z,3.00
2022-09-03T05:38:59.374Z,2.60
2022-09-03T05:41:27.749Z,2.50
2022-09-03T05:43:59.166Z,2.67
2022-09-03T05:46:32.336Z,2.53
2022-09-03T05:49:05.092Z,3.00
2022-09-03T05:51:34.517Z,2.50
2022-09-03T05:54:02.770Z,2.30
2022-09-03T05:56:32.234Z,2.87
2022-09-03T05:59:01.954Z,2.73
2022-09-03T06:01:32.117Z,2.80
2022-09-03T06:04:03.256Z,2.63
2022-09-03T06:06:32.951Z,2.73
2022-09-03T06:09:02.624Z,2.80
2022-09-03T06:11:30.836Z,3.03
2022-09-03T06:14:01.463Z,2.77
2022-09-03T06:16:31.657Z,2.97
2022-09-03T06:19:03.402Z,2.37
2022-09-03T06:21:30.505Z,2.60
2022-09-03T06:23:59.637Z,2.87
2022-09-03T06:26:29.302Z,2.47
2022-09-03T06:28:57.663Z,2.70
2022-09-03T06:31:25.516Z,2.60
2022-09-03T06:33:54.882Z,2.77
2022-09-03T06:36:24.327Z,2.23
2022-09-03T06:38:56.623Z,2.60
2022-09-03T06:41:27.326Z,2.70
2022-09-03T06:43:59.156Z,2.40
2022-09-03T06:46:26.518Z,2.03
2022-09-03T06:48:55.600Z,2.03
2022-09-03T06:51:28.102Z,2.43
2022-09-03T06:54:03.895Z,2.10
2022-09-03T06:56:37.315Z,2.30
2022-09-03T06:59:15.054Z,2.40
2022-09-03T07:01:46.036Z,2.40
2022-09-03T07:04:20.407Z,1.90
2022-09-03T07:06:47.928Z,2.23
2022-09-03T07:09:18.227Z,2.10
2022-09-03T07:11:48.392Z,2.37
2022-09-03T07:14:18.328Z,1.90
2022-09-03T07:16:46.403Z,2.50
2022-09-03T07:19:13.730Z,2.17
2022-09-03T07:21:46.499Z,2.00
2022-09-03T07:24:16.997Z,2.13
2022-09-03T07:26:48.871Z,2.00
2022-09-03T07:29:20.363Z,2.10
2022-09-03T07:31:51.406Z,2.00
2022-09-03T07:34:20.482Z,1.40
2022-09-03T07:36:51.454Z,1.63
2022-09-03T07:39:19.938Z,2.07
2022-09-03T07:41:47.751Z,1.87
2022-09-03T07:44:19.833Z,1.90
2022-09-03T07:46:51.650Z,1.60
2022-09-03T07:49:24.441Z,1.90
2022-09-03T07:51:54.357Z,1.60
2022-09-03T07:54:22.309Z,1.30
2022-09-03T07:56:49.448Z,2.10
2022-09-03T07:59:16.800Z,1.50
2022-09-03T08:01:46.752Z,1.40
2022-09-03T08:04:13.921Z,1.50
2022-09-03T08:06:41.087Z,1.80
2022-09-03T08:09:12.449Z,1.60
2022-09-03T08:11:43.396Z,1.70
2022-09-03T08:14:13.274Z,1.93
2022-09-03T08:16:43.026Z,1.37
2022-09-03T08:19:12.116Z,1.50
2022-09-03T08:21:42.271Z,1.70
2022-09-03T08:24:11.147Z,1.90
2022-09-03T08:26:41.994Z,2.10
2022-09-03T08:29:13.165Z,1.90
2022-09-03T08:31:40.339Z,1.57
2022-09-03T08:34:08.237Z,1.70
2022-09-03T08:36:37.894Z,2.20
2022-09-03T08:39:10.682Z,1.90
2022-09-03T08:41:47.560Z,1.70
2022-09-03T08:44:20.548Z,1.60
2022-09-03T08:46:54.014Z,1.70
2022-09-03T08:49:28.111Z,1.70
2022-09-03T08:51:59.016Z,1.60
2022-09-03T08:54:31.018Z,1.60
2022-09-03T08:57:02.485Z,1.30
2022-09-03T08:59:33.216Z,2.10
2022-09-03T09:02:18.369Z,1.57
2022-09-03T09:05:23.525Z,1.80
2022-09-03T09:08:05.652Z,1.53
2022-09-03T09:10:42.737Z,1.40
2022-09-03T09:13:38.710Z,1.27
2022-09-03T09:16:08.737Z,1.17
2022-09-03T09:18:59.357Z,1.43
2022-09-03T09:21:36.214Z,1.67
2022-09-03T09:24:08.854Z,1.90
2022-09-03T09:26:36.108Z,1.40
2022-09-03T09:29:10.602Z,1.37
2022-09-03T09:31:39.875Z,1.57
2022-09-03T09:34:08.593Z,1.43
2022-09-03T09:36:52.232Z,1.63
2022-09-03T09:39:20.566Z,1.40
2022-09-03T09:42:12.011Z,1.47
2022-09-03T09:44:42.290Z,1.30
2022-09-03T09:47:09.903Z,1.60
2022-09-03T09:49:51.086Z,1.50
2022-09-03T09:52:19.466Z,1.93
2022-09-03T09:54:46.570Z,1.30
2022-09-03T09:57:22.623Z,1.50
2022-09-03T09:59:50.900Z,1.27
2022-09-03T10:02:26.800Z,1.37
2022-09-03T10:05:11.800Z,1.40
2022-09-03T10:07:39.027Z,1.40
2022-09-03T10:10:18.375Z,1.23
2022-09-03T10:13:02.326Z,1.30
2022-09-03T10:15:44.918Z,1.30
2022-09-03T10:18:28.717Z,1.33
2022-09-03T10:21:05.150Z,1.00
2022-09-03T10:23:47.754Z,1.30
2022-09-03T10:26:18.765Z,1.20
2022-09-03T10:28:55.922Z,1.40
2022-09-03T10:31:45.691Z,1.23
2022-09-03T10:34:38.763Z,1.40
2022-09-03T10:37:30.826Z,1.30
2022-09-03T10:40:30.980Z,1.20
2022-09-03T10:43:37.875Z,1.10
2022-09-03T10:46:23.401Z,1.13
2022-09-03T10:48:51.330Z,1.13
2022-09-03T10:51:34.199Z,0.90
2022-09-03T10:54:04.745Z,1.10
2022-09-03T10:56:44.059Z,1.08
2022-09-03T10:59:38.980Z,1.20
2022-09-03T11:02:33.425Z,0.90
2022-09-03T11:05:16.318Z,0.90
2022-09-03T11:08:12.478Z,1.00
2022-09-03T11:10:52.869Z,1.23
2022-09-03T11:13:31.031Z,1.10
2022-09-03T11:16:12.125Z,1.10
2022-09-03T11:18:49.502Z,0.90
2022-09-03T11:21:21.861Z,1.00
2022-09-03T11:23:58.222Z,0.98
2022-09-03T11:26:29.283Z,1.00
2022-09-03T11:29:18.277Z,1.15
2022-09-03T11:31:58.680Z,1.23
2022-09-03T11:34:32.081Z,1.13
2022-09-03T11:37:22.703Z,0.85
2022-09-03T11:40:19.878Z,0.93
2022-09-03T11:42:48.480Z,1.25
2022-09-03T11:45:24.241Z,0.90
2022-09-03T11:47:52.167Z,1.30
2022-09-03T11:50:27.657Z,0.98
2022-09-03T11:53:08.211Z,0.93
2022-09-03T11:55:59.286Z,1.15
2022-09-03T11:58:33.823Z,0.80
2022-09-03T12:01:05.209Z,0.90
2022-09-03T12:03:55.011Z,1.23
2022-09-03T12:06:52.999Z,0.95
2022-09-03T12:09:51.776Z,1.20
2022-09-03T12:12:37.714Z,1.10
2022-09-03T12:15:42.261Z,0.98
2022-09-03T12:18:22.185Z,1.05
2022-09-03T12:21:03.993Z,1.00
2022-09-03T12:23:55.577Z,0.90
2022-09-03T12:26:27.581Z,0.82
2022-09-03T12:28:59.939Z,0.90
2022-09-03T12:31:30.168Z,1.27
2022-09-03T12:34:19.358Z,1.00
2022-09-03T12:36:48.502Z,1.10
2022-09-03T12:42:20.731Z,1.00
2022-09-03T12:44:48.099Z,1.27
2022-09-03T12:47:36.465Z,1.00
2022-09-03T12:50:11.252Z,0.90
2022-09-03T12:52:50.968Z,0.98
2022-09-03T12:56:05.604Z,1.27
2022-09-03T12:58:40.698Z,0.70
2022-09-03T13:01:22.764Z,1.00
2022-09-03T13:04:08.019Z,1.02
2022-09-03T13:06:50.046Z,0.70
2022-09-03T13:09:22.439Z,1.08
2022-09-03T13:11:52.522Z,1.40
2022-09-03T13:14:20.185Z,1.02
2022-09-03T13:16:47.474Z,0.90
2022-09-03T13:19:46.215Z,1.20
2022-09-03T13:22:31.826Z,1.00
2022-09-03T13:25:27.835Z,1.20
2022-09-03T13:28:27.723Z,1.10
2022-09-03T13:30:55.386Z,1.20
2022-09-03T13:33:33.383Z,1.05
2022-09-03T13:36:10.892Z,1.00
2022-09-03T13:38:50.519Z,1.20
2022-09-03T13:41:44.055Z,1.08
2022-09-03T13:44:16.702Z,0.95
2022-09-03T13:46:48.899Z,0.93
2022-09-03T13:50:06.467Z,1.25
2022-09-03T13:52:56.815Z,0.90
2022-09-03T13:55:29.222Z,1.00
2022-09-03T13:58:03.133Z,1.10
2022-09-03T14:00:34.653Z,0.95
2022-09-03T14:03:16.715Z,1.00
2022-09-03T14:06:05.471Z,1.20
2022-09-03T14:08:59.446Z,1.10
2022-09-03T14:11:47.493Z,0.80
2022-09-03T14:14:40.685Z,1.10
2022-09-03T14:17:14.387Z,1.10
2022-09-03T14:20:08.005Z,1.23
2022-09-03T14:23:00.482Z,1.47
2022-09-03T14:25:28.569Z,1.08
2022-09-03T14:28:27.656Z,0.93
2022-09-03T14:31:52.472Z,0.93
2022-09-03T14:34:47.526Z,0.90
2022-09-03T14:37:35.151Z,1.03
2022-09-03T14:40:05.815Z,1.10
2022-09-03T14:42:47.802Z,1.00
2022-09-03T14:45:52.717Z,1.07
2022-09-03T14:48:43.076Z,1.00
2022-09-03T14:51:24.298Z,0.80
2022-09-03T14:54:06.371Z,1.17
2022-09-03T14:56:45.471Z,0.90
2022-09-03T14:59:28.943Z,0.70
2022-09-03T15:02:37.089Z,1.00
2022-09-03T15:05:18.717Z,0.90
2022-09-03T15:08:02.314Z,1.00
2022-09-03T15:10:56.418Z,1.10
2022-09-03T15:13:47.666Z,1.63
2022-09-03T15:16:35.837Z,1.13
2022-09-03T15:19:12.028Z,0.90
2022-09-03T15:22:01.606Z,0.97
2022-09-03T15:24:38.267Z,1.17
2022-09-03T15:27:42.819Z,1.20
2022-09-03T15:30:21.695Z,1.20
2022-09-03T15:32:55.050Z,1.10
2022-09-03T15:35:56.129Z,1.00
2022-09-03T15:38:32.282Z,0.90
2022-09-03T15:41:08.206Z,1.20
2022-09-03T15:43:35.494Z,0.97
2022-09-03T15:46:29.122Z,1.00
2022-09-03T15:49:47.167Z,1.00
2022-09-03T15:52:30.502Z,1.00
2022-09-03T15:55:23.179Z,1.17
2022-09-03T15:58:08.272Z,0.83
2022-09-03T16:00:58.088Z,1.20
2022-09-03T16:03:58.571Z,1.20
2022-09-03T16:06:37.427Z,1.10
2022-09-03T16:09:27.742Z,1.23
2022-09-03T16:12:20.061Z,1.07
2022-09-03T16:15:06.732Z,1.10
2022-09-03T16:17:46.047Z,1.47
2022-09-03T16:20:32.476Z,1.30
2022-09-03T16:23:29.707Z,1.37
2022-09-03T16:26:20.797Z,1.20
2022-09-03T16:28:59.960Z,1.67
2022-09-03T16:31:30.237Z,1.80
2022-09-03T16:34:31.569Z,1.60
2022-09-03T16:37:29.210Z,1.70
2022-09-03T16:40:24.449Z,1.53
2022-09-03T16:43:39.760Z,2.17
2022-09-03T16:46:50.286Z,2.20
2022-09-03T16:49:44.645Z,2.03
2022-09-03T16:52:38.483Z,2.43
2022-09-03T16:55:07.222Z,2.30
2022-09-03T16:57:44.903Z,2.37
2022-09-03T17:00:15.300Z,2.37
2022-09-03T17:02:53.936Z,2.30
2022-09-03T17:05:40.159Z,2.07
2022-09-03T17:08:15.010Z,2.33
2022-09-03T17:10:52.580Z,2.57
2022-09-03T17:13:22.420Z,1.97
2022-09-03T17:16:04.554Z,2.03
2022-09-03T17:18:31.845Z,2.00
2022-09-03T17:21:26.665Z,2.10
2022-09-03T17:24:38.441Z,1.93
2022-09-03T17:27:12.439Z,2.67
2022-09-03T17:29:55.997Z,2.10
2022-09-03T17:32:41.174Z,2.00
2022-09-03T17:35:13.866Z,2.20
2022-09-03T17:37:44.825Z,2.10
2022-09-03T17:40:46.667Z,1.90
2022-09-03T17:43:36.009Z,1.90
2022-09-03T17:46:30.926Z,2.00
2022-09-03T17:49:02.894Z,2.00
2022-09-03T17:51:42.008Z,1.87
2022-09-03T17:54:23.902Z,2.37
2022-09-03T17:57:02.833Z,2.40
2022-09-03T17:59:50.675Z,1.90
2022-09-03T18:02:37.520Z,1.87
2022-09-03T18:05:28.531Z,1.87
2022-09-03T18:08:01.547Z,2.17
2022-09-03T18:10:56.596Z,2.10
2022-09-03T18:13:58.942Z,1.87
2022-09-03T18:16:33.380Z,2.63
2022-09-03T18:19:31.051Z,2.03
2022-09-03T18:22:22.073Z,2.40
2022-09-03T18:25:18.653Z,2.20
2022-09-03T18:28:09.564Z,2.20
2022-09-03T18:31:01.497Z,2.53
2022-09-03T18:33:48.045Z,2.60
2022-09-03T18:36:33.776Z,2.27
2022-09-03T18:39:40.184Z,2.03
2022-09-03T18:42:34.695Z,2.27
2022-09-03T18:46:34.170Z,2.30
2022-09-03T18:49:10.132Z,1.90
2022-09-03T18:52:12.010Z,2.47
2022-09-03T18:55:16.848Z,2.33
2022-09-03T18:58:34.785Z,2.30
2022-09-03T19:01:52.959Z,2.60
2022-09-03T19:05:20.522Z,2.20
2022-09-03T19:08:27.978Z,3.00
2022-09-03T19:11:22.514Z,2.27
2022-09-03T19:14:10.042Z,2.50
2022-09-03T19:17:19.838Z,2.27
2022-09-03T19:20:31.533Z,2.17
2022-09-03T19:23:17.488Z,2.40
2022-09-03T19:26:03.366Z,3.20
2022-09-03T19:28:51.890Z,3.27
2022-09-03T19:32:05.670Z,2.67
2022-09-03T19:35:20.544Z,3.00
2022-09-03T19:38:12.107Z,3.17
2022-09-03T19:41:19.483Z,3.13
2022-09-03T19:44:27.603Z,3.10
2022-09-03T19:47:21.213Z,3.27
2022-09-03T19:50:31.807Z,3.10
2022-09-03T19:53:22.397Z,3.27
2022-09-03T19:56:28.359Z,3.20
2022-09-03T19:59:21.790Z,3.53
2022-09-03T20:02:08.304Z,3.50
2022-09-03T20:05:03.888Z,3.37
2022-09-03T20:07:50.476Z,3.40
2022-09-03T20:10:24.925Z,3.50
2022-09-03T20:13:15.292Z,4.07
2022-09-03T20:16:00.074Z,3.87
2022-09-03T20:19:02.691Z,3.80
2022-09-03T20:21:57.624Z,4.10
2022-09-03T20:24:59.169Z,4.97
2022-09-03T20:27:54.154Z,4.50
2022-09-03T20:30:23.300Z,4.37
2022-09-03T20:33:28.129Z,4.37
2022-09-03T20:36:25.400Z,4.00
2022-09-03T20:39:04.790Z,4.13
2022-09-03T20:41:43.447Z,5.03
2022-09-03T20:44:19.877Z,4.90
2022-09-03T20:47:28.556Z,5.13
2022-09-03T20:50:21.091Z,5.30
2022-09-03T20:53:12.202Z,5.87
2022-09-03T20:55:44.426Z,6.50
2022-09-03T20:58:48.813Z,7.43
2022-09-03T21:01:36.557Z,7.40
2022-09-03T21:04:26.592Z,7.07
2022-09-03T21:07:11.814Z,7.37
2022-09-03T21:09:56.574Z,6.43
2022-09-03T21:13:00.197Z,6.30
2022-09-03T21:16:02.635Z,7.27
2022-09-03T21:18:37.298Z,6.60
2022-09-03T21:21:22.309Z,6.50
2022-09-03T21:24:13.540Z,6.27
2022-09-03T21:26:46.256Z,6.00
2022-09-03T21:29:23.457Z,6.70
2022-09-03T21:32:01.876Z,6.93
2022-09-03T21:35:07.092Z,5.97
2022-09-03T21:37:36.604Z,6.60
2022-09-03T21:40:07.958Z,8.10
2022-09-03T21:42:44.632Z,7.30
2022-09-03T21:45:18.103Z,6.33
2022-09-03T21:47:53.594Z,7.50
2022-09-03T21:50:23.120Z,7.13
2022-09-03T21:53:32.766Z,7.23
2022-09-03T21:56:32.898Z,7.17
2022-09-03T21:59:23.408Z,8.30
2022-09-03T22:02:18.043Z,7.27
2022-09-03T22:04:45.259Z,8.17
2022-09-03T22:07:40.564Z,8.90
2022-09-03T22:10:32.025Z,7.77
2022-09-03T22:13:38.096Z,7.13
2022-09-03T22:16:35.317Z,8.30
2022-09-03T22:19:02.880Z,7.67
2022-09-03T22:21:44.421Z,8.53
2022-09-03T22:24:23.062Z,9.17
2022-09-03T22:26:56.931Z,11.57
2022-09-03T22:29:41.348Z,13.00
2022-09-03T22:32:33.753Z,11.60
2022-09-03T22:35:22.065Z,13.63
2022-09-03T22:38:07.134Z,11.47
2022-09-03T22:40:52.324Z,15.03
2022-09-03T22:43:35.281Z,20.83
2022-09-03T22:46:09.561Z,12.60
2022-09-03T22:49:22.375Z,16.90
2022-09-03T22:52:17.127Z,19.47
2022-09-03T22:54:51.175Z,23.53
2022-09-03T22:57:22.424Z,21.50
2022-09-03T23:00:10.365Z,15.53
2022-09-03T23:02:38.394Z,15.47
2022-09-03T23:05:14.364Z,14.73
2022-09-03T23:07:54.251Z,15.77
2022-09-03T23:10:44.025Z,14.77
2022-09-03T23:13:18.556Z,14.57
2022-09-03T23:15:54.733Z,14.07
2022-09-03T23:18:27.178Z,13.37
2022-09-03T23:21:04.125Z,7.87
2022-09-03T23:23:51.056Z,7.77
2022-09-03T23:26:44.536Z,6.83
2022-09-03T23:29:16.094Z,7.27
2022-09-03T23:31:43.418Z,9.00
2022-09-03T23:34:12.583Z,9.00
2022-09-03T23:37:29.619Z,9.83
2022-09-03T23:39:48.173Z,9.10
2022-09-03T23:42:46.127Z,8.47
2022-09-03T23:45:37.043Z,9.07
2022-09-03T23:48:19.407Z,7.20
2022-09-03T23:50:52.901Z,9.50
2022-09-03T23:53:49.038Z,9.70
2022-09-03T23:56:30.891Z,8.30
2022-09-03T23:59:28.717Z,9.53
